createdAt,value
2022-12-18T00:08:21.661Z,102701.97
2022-12-18T00:18:24.460Z,102703.88
2022-12-18T00:28:28.676Z,102674.25
2022-12-18T00:38:31.512Z,102663.84
2022-12-18T00:48:35.777Z,102657.34
2022-12-18T00:58:39.147Z,102652.84
2022-12-18T01:08:43.253Z,102658.16
2022-12-18T01:18:48.842Z,102675.72
2022-12-18T01:28:53.170Z,102674.59
2022-12-18T01:38:56.359Z,102674.84
2022-12-18T01:49:03.173Z,102671.63
2022-12-18T01:59:07.779Z,102676.16
2022-12-18T02:09:14.576Z,102651.56
2022-12-18T02:19:24.032Z,102665.66
2022-12-18T02:29:31.776Z,102655.31
2022-12-18T02:39:35.139Z,102645.06
2022-12-18T02:49:46.945Z,102640.28
2022-12-18T02:59:55.272Z,102633.38
2022-12-18T03:10:00.366Z,102613.75
2022-12-18T03:20:06.365Z,102605.03
2022-12-18T03:30:14.150Z,102613.53
2022-12-18T03:40:17.058Z,102615.97
2022-12-18T03:50:24.222Z,102606.22
2022-12-18T04:00:27.968Z,102594.84
2022-12-18T04:10:40.841Z,102562.25
2022-12-18T04:20:43.727Z,102545.00
2022-12-18T04:30:49.068Z,102558.50
2022-12-18T04:40:52.394Z,102567.88
2022-12-18T04:51:02.906Z,102603.44
2022-12-18T05:01:05.745Z,102591.88
2022-12-18T05:11:10.784Z,102603.56
2022-12-18T05:21:13.523Z,102591.84
2022-12-18T05:31:17.668Z,102592.81
2022-12-18T05:41:20.451Z,102586.47
2022-12-18T05:51:24.508Z,102576.09
2022-12-18T06:01:28.430Z,102572.41
2022-12-18T06:11:32.546Z,102569.81
2022-12-18T06:21:35.750Z,102569.59
2022-12-18T06:31:40.471Z,102574.19
2022-12-18T06:41:43.427Z,102575.53
2022-12-18T06:51:47.803Z,102556.72
2022-12-18T07:01:51.546Z,102557.50
2022-12-18T07:11:55.685Z,102540.59
2022-12-18T07:21:58.714Z,102519.34
2022-12-18T07:32:02.907Z,102486.88
2022-12-18T07:42:38.282Z,102477.22
2022-12-18T07:52:42.577Z,102446.28
2022-12-18T08:02:45.427Z,102436.31
2022-12-18T08:12:52.040Z,102454.78
2022-12-18T08:22:55.180Z,102458.31
2022-12-18T08:32:59.302Z,102455.69
2022-12-18T08:43:19.432Z,102448.81
2022-12-18T08:53:23.522Z,102442.69
2022-12-18T09:03:27.747Z,102431.47
2022-12-18T09:13:32.107Z,102454.16
2022-12-18T09:23:35.023Z,102465.06
2022-12-18T09:33:39.624Z,102439.19
2022-12-18T09:43:47.810Z,102439.56
2022-12-18T09:53:58.386Z,102409.91
2022-12-18T10:04:02.041Z,102427.53
2022-12-18T10:14:11.945Z,102419.78
2022-12-18T10:24:23.879Z,102414.03
2022-12-18T10:34:28.490Z,102379.97
2022-12-18T10:44:31.435Z,102366.28
2022-12-18T10:54:37.124Z,102355.41
2022-12-18T11:04:53.200Z,102338.19
2022-12-18T11:14:58.761Z,102345.78
2022-12-18T11:35:37.736Z,102308.41
2022-12-18T11:45:46.601Z,102308.72
2022-12-18T11:56:04.460Z,102304.00
2022-12-18T12:06:18.509Z,102284.34
2022-12-18T12:16:31.360Z,102256.63
2022-12-18T12:26:42.707Z,102255.03
2022-12-18T12:36:58.746Z,102237.41
2022-12-18T12:47:08.188Z,102219.75
2022-12-18T12:57:19.765Z,102206.50
2022-12-18T13:07:31.476Z,102190.22
2022-12-18T13:17:36.256Z,102181.41
2022-12-18T13:27:55.575Z,102185.31
2022-12-18T13:38:00.347Z,102186.09
2022-12-18T13:48:04.742Z,102166.72
2022-12-18T13:58:09.308Z,102156.72
2022-12-18T14:08:16.342Z,102143.94
2022-12-18T14:18:25.765Z,102152.13
2022-12-18T14:28:29.411Z,102137.13
2022-12-18T14:38:35.722Z,102151.47
2022-12-18T14:48:41.701Z,102138.72
2022-12-18T14:58:51.221Z,102145.31
2022-12-18T15:08:54.353Z,102126.44
2022-12-18T15:18:58.900Z,102113.69
2022-12-18T15:29:03.996Z,102114.81
2022-12-18T15:39:08.729Z,102097.84
2022-12-18T15:49:11.630Z,102105.66
2022-12-18T15:59:17.614Z,102071.81
2022-12-18T16:09:25.932Z,102072.13
2022-12-18T16:19:31.113Z,102054.63
2022-12-18T16:29:34.071Z,102029.41
2022-12-18T16:39:40.109Z,102026.97
2022-12-18T16:49:43.192Z,102010.47
2022-12-18T16:59:48.312Z,102012.59
2022-12-18T17:09:51.612Z,101997.78
2022-12-18T17:19:56.029Z,102011.72
2022-12-18T17:29:59.066Z,102024.34
2022-12-18T17:40:03.412Z,102020.69
2022-12-18T17:50:06.944Z,102026.59
2022-12-18T18:00:13.072Z,102017.72
2022-12-18T18:10:16.959Z,102005.66
2022-12-18T18:20:22.836Z,102002.78
2022-12-18T18:30:26.023Z,101997.63
2022-12-18T18:40:30.511Z,102002.88
2022-12-18T18:50:33.557Z,102002.00
2022-12-18T19:00:37.933Z,101993.63
2022-12-18T19:10:41.780Z,101995.06
2022-12-18T19:20:54.977Z,101999.22
2022-12-18T19:31:01.798Z,102004.78
2022-12-18T19:41:07.214Z,102006.34
2022-12-18T19:51:13.020Z,102003.22
2022-12-18T20:01:19.610Z,102000.53
2022-12-18T20:11:22.906Z,102005.91
2022-12-18T20:21:27.550Z,101995.84
2022-12-18T20:31:30.649Z,101998.53
2022-12-18T20:41:38.307Z,101994.72
2022-12-18T20:51:42.196Z,101970.28
2022-12-18T21:01:48.905Z,101959.66
2022-12-18T21:12:12.405Z,101940.69
2022-12-18T21:22:18.828Z,101932.31
2022-12-18T21:32:21.919Z,101928.63
2022-12-18T21:42:46.429Z,101914.00
2022-12-18T21:52:49.394Z,101906.41
2022-12-18T22:03:08.711Z,101885.50
2022-12-18T22:13:17.330Z,101863.94
2022-12-18T22:23:21.744Z,101849.94
2022-12-18T22:33:24.691Z,101814.16
2022-12-18T22:43:29.027Z,101800.41
2022-12-18T22:53:31.921Z,101790.00
2022-12-18T23:03:37.400Z,101778.75
2022-12-18T23:13:41.257Z,101778.78
2022-12-18T23:23:46.098Z,101747.72
2022-12-18T23:33:49.361Z,101744.06
2022-12-18T23:43:54.416Z,101727.28
2022-12-18T23:53:59.342Z,101702.84
